createdAt,value
2018-04-24T00:07:52.923Z,51.20
2018-04-24T00:10:24.845Z,51.00
2018-04-24T00:12:56.978Z,50.30
2018-04-24T00:15:28.335Z,46.60
2018-04-24T00:18:00.379Z,44.50
2018-04-24T00:20:38.506Z,45.50
2018-04-24T00:23:12.030Z,45.90
2018-04-24T00:25:45.044Z,46.10
2018-04-24T00:28:25.772Z,47.20
2018-04-24T00:31:01.689Z,47.20
2018-04-24T00:33:38.568Z,46.90
2018-04-24T00:36:09.954Z,47.70
2018-04-24T00:38:45.780Z,47.70
2018-04-24T00:41:25.398Z,47.40
2018-04-24T00:44:01.977Z,47.20
2018-04-24T00:46:38.256Z,47.10
2018-04-24T00:49:19.235Z,46.90
2018-04-24T00:51:55.938Z,47.00
2018-04-24T00:54:33.866Z,48.90
2018-04-24T00:57:09.909Z,48.90
2018-04-24T01:00:48.348Z,51.10
2018-04-24T01:03:23.493Z,48.90
2018-04-24T01:05:55.275Z,48.50
2018-04-24T01:08:31.318Z,48.40
2018-04-24T13:54:41.976Z,60.90
2018-04-24T13:57:15.072Z,74.40
2018-04-24T13:59:48.850Z,75.50
2018-04-24T14:02:22.098Z,75.50
2018-04-24T14:04:56.540Z,74.70
2018-04-24T14:07:28.160Z,71.70
2018-04-24T14:10:06.570Z,70.80
2018-04-24T14:12:38.494Z,70.50
2018-04-24T14:15:23.385Z,72.20
2018-04-24T14:18:04.611Z,71.60
2018-04-24T14:20:38.992Z,69.50
2018-04-24T14:23:11.696Z,68.00
2018-04-24T14:25:46.266Z,65.00
2018-04-24T14:28:23.643Z,64.90
2018-04-24T14:31:06.408Z,63.00
2018-04-24T14:33:39.145Z,61.80
2018-04-24T14:36:15.950Z,61.20
2018-04-24T14:38:54.441Z,61.20
2018-04-24T14:41:30.758Z,58.40
2018-04-24T14:44:09.549Z,58.40
